Time;durP1;ratioP1;P1;durP2;ratioP2;P2;SDS_P1;SDS_P2;PMS_P1;PMS_P2;Temp;Humidity;BMP_temperature;BMP_pressure;BME280_temperature;BME280_humidity;BME280_pressure;Samples;Min_cycle;Max_cycle;Signal;HPM_P1;HPM_P2
2023/07/07 00:02:08;;;;;;;3.90;2.40;;;16.80;62.00;;;;;;5059940;28;20507;-72
2023/07/07 00:04:33;;;;;;;2.80;2.23;;;16.70;62.50;;;;;;5061923;28;20314;-73
2023/07/07 00:06:59;;;;;;;3.83;1.87;;;16.70;63.40;;;;;;5097943;28;20180;-72
2023/07/07 00:09:25;;;;;;;3.73;2.50;;;16.70;63.70;;;;;;5097768;28;20247;-72
2023/07/07 00:11:51;;;;;;;3.23;1.90;;;16.70;64.20;;;;;;5080171;28;20612;-72
2023/07/07 00:14:17;;;;;;;2.73;2.13;;;16.60;64.50;;;;;;5097467;28;20437;-73
2023/07/07 00:16:42;;;;;;;3.50;2.40;;;16.60;65.50;;;;;;5058132;28;20459;-73
2023/07/07 00:19:09;;;;;;;3.50;2.10;;;16.50;66.60;;;;;;5087121;28;20626;-73
2023/07/07 00:21:36;;;;;;;3.93;2.20;;;16.50;67.80;;;;;;5096559;28;20204;-73
2023/07/07 00:24:02;;;;;;;3.50;2.30;;;16.40;69.10;;;;;;5097394;28;20449;-72
2023/07/07 00:26:28;;;;;;;4.30;2.90;;;16.40;70.20;;;;;;5097952;28;20701;-72
2023/07/07 00:28:53;;;;;;;4.17;2.93;;;16.40;70.80;;;;;;5097220;28;20179;-72
2023/07/07 00:31:22;;;;;;;3.27;2.43;;;16.30;72.10;;;;;;5088559;28;20192;-72
2023/07/07 00:33:48;;;;;;;4.00;2.73;;;16.30;73.50;;;;;;5097548;28;20189;-72
2023/07/07 00:36:14;;;;;;;3.50;2.80;;;16.30;74.30;;;;;;5078954;28;20425;-73
2023/07/07 00:38:39;;;;;;;2.50;2.17;;;16.20;75.30;;;;;;5078766;28;20208;-71
2023/07/07 00:41:07;;;;;;;3.83;2.50;;;16.20;76.80;;;;;;5078817;28;20279;-72
2023/07/07 00:43:33;;;;;;;3.10;2.50;;;16.20;78.00;;;;;;5097162;28;20191;-72
2023/07/07 00:46:00;;;;;;;3.83;3.20;;;16.10;79.30;;;;;;5088999;28;20525;-72
2023/07/07 00:48:51;;;;;;;4.20;2.50;;;16.10;80.60;;;;;;5096734;28;20736;-71
2023/07/07 00:51:36;;;;;;;4.07;2.43;;;16.00;81.90;;;;;;5075104;28;20411;-72
2023/07/07 00:54:13;;;;;;;3.10;1.97;;;16.00;83.20;;;;;;5095322;28;20426;-72
2023/07/07 00:56:42;;;;;;;3.87;2.60;;;15.90;84.70;;;;;;5097174;28;20423;-71
2023/07/07 00:59:20;;;;;;;4.63;3.10;;;15.90;85.70;;;;;;5096522;28;20442;-73
2023/07/07 01:01:47;;;;;;;5.40;2.80;;;15.90;87.40;;;;;;5056033;28;20501;-73
2023/07/07 01:04:17;;;;;;;3.30;2.40;;;15.90;88.60;;;;;;5060808;28;21013;-72
2023/07/07 01:06:48;;;;;;;5.70;2.80;;;15.80;89.70;;;;;;5078939;28;20483;-71
2023/07/07 01:09:14;;;;;;;4.53;2.50;;;15.80;90.40;;;;;;5078188;28;20505;-73
2023/07/07 01:11:40;;;;;;;4.53;2.50;;;15.80;91.00;;;;;;5081035;28;20419;-73
2023/07/07 01:14:10;;;;;;;3.23;2.50;;;15.80;91.20;;;;;;5081625;28;20476;-73
2023/07/07 01:16:50;;;;;;;2.93;2.20;;;15.80;91.70;;;;;;5065328;28;20217;-72
2023/07/07 01:19:31;;;;;;;2.73;2.20;;;15.70;92.40;;;;;;5038741;28;20435;-72
2023/07/07 01:22:11;;;;;;;2.50;2.10;;;15.70;93.10;;;;;;5086137;28;20457;-71
2023/07/07 01:25:00;;;;;;;2.83;2.00;;;15.60;93.90;;;;;;5095716;28;20779;-72
2023/07/07 01:27:53;;;;;;;3.13;1.90;;;15.60;94.80;;;;;;5078639;28;20434;-71
2023/07/07 01:30:39;;;;;;;3.00;2.70;;;15.60;95.60;;;;;;5081193;28;20476;-72
2023/07/07 01:33:09;;;;;;;3.30;1.73;;;15.50;96.60;;;;;;5084445;28;20450;-72
2023/07/07 01:35:34;;;;;;;1.53;1.30;;;15.50;97.50;;;;;;5096096;28;20497;-72
2023/07/07 01:38:01;;;;;;;2.40;1.73;;;15.50;97.90;;;;;;5078237;28;20857;-71
2023/07/07 01:40:49;;;;;;;3.50;2.03;;;15.40;98.40;;;;;;5077352;28;20461;-72
2023/07/07 01:43:23;;;;;;;2.67;1.93;;;15.40;98.90;;;;;;5096163;28;20406;-71
2023/07/07 01:45:59;;;;;;;2.67;2.00;;;15.40;99.40;;;;;;5074850;28;20473;-71
2023/07/07 01:48:41;;;;;;;4.47;1.90;;;15.40;99.60;;;;;;5073784;28;20577;-71
2023/07/07 01:51:11;;;;;;;3.33;2.23;;;15.30;99.90;;;;;;5095628;28;20521;-72
2023/07/07 01:53:39;;;;;;;3.67;2.10;;;15.20;99.90;;;;;;5096476;28;20391;-73
2023/07/07 01:56:06;;;;;;;2.40;2.00;;;15.20;99.90;;;;;;5096103;28;20414;-77
2023/07/07 01:58:34;;;;;;;3.50;2.33;;;15.20;99.90;;;;;;5079218;28;20402;-72
2023/07/07 02:01:01;;;;;;;2.70;2.30;;;15.10;99.90;;;;;;5055681;28;20440;-72
2023/07/07 02:03:27;;;;;;;2.50;1.90;;;15.10;99.90;;;;;;5059151;28;20447;-73
2023/07/07 02:05:52;;;;;;;3.40;1.90;;;15.10;99.90;;;;;;5096080;28;20454;-73
2023/07/07 02:08:18;;;;;;;1.87;1.63;;;15.00;99.90;;;;;;5077894;28;20406;-71
2023/07/07 02:10:44;;;;;;;2.97;1.97;;;14.90;99.90;;;;;;5070603;28;20622;-72
2023/07/07 02:13:09;;;;;;;3.10;2.40;;;14.90;99.90;;;;;;5095616;28;20325;-70
2023/07/07 02:15:35;;;;;;;3.30;1.80;;;14.90;99.90;;;;;;5080604;28;20323;-71
2023/07/07 02:18:03;;;;;;;2.03;1.47;;;14.90;99.90;;;;;;5064312;28;20259;-71
2023/07/07 02:20:29;;;;;;;2.47;1.70;;;14.80;99.90;;;;;;5094930;28;20593;-71
2023/07/07 02:22:55;;;;;;;3.10;1.90;;;14.80;99.90;;;;;;5095213;28;20691;-72
2023/07/07 02:25:20;;;;;;;2.40;1.50;;;14.80;99.90;;;;;;5095158;28;20461;-71
2023/07/07 02:27:46;;;;;;;2.57;1.90;;;14.80;99.90;;;;;;5095460;28;20561;-71
2023/07/07 02:30:12;;;;;;;3.10;2.20;;;14.70;99.90;;;;;;5085120;28;20466;-71
2023/07/07 02:32:37;;;;;;;1.77;1.60;;;14.70;99.90;;;;;;5055065;28;20257;-71
2023/07/07 02:35:06;;;;;;;2.80;2.47;;;14.70;99.90;;;;;;5056910;28;20193;-71
2023/07/07 02:37:32;;;;;;;2.83;1.80;;;14.60;99.90;;;;;;5095037;28;20236;-74
2023/07/07 02:39:58;;;;;;;2.90;1.97;;;14.60;99.90;;;;;;5095275;28;20717;-72
2023/07/07 02:42:24;;;;;;;3.03;1.93;;;14.60;99.90;;;;;;5094883;28;20415;-72
2023/07/07 02:44:50;;;;;;;3.03;2.07;;;14.60;99.90;;;;;;5090480;28;20225;-71
2023/07/07 02:47:16;;;;;;;2.37;1.80;;;14.50;99.90;;;;;;5092369;28;20694;-74
2023/07/07 02:49:41;;;;;;;3.00;1.97;;;14.50;99.90;;;;;;5080991;28;20434;-72
2023/07/07 02:52:07;;;;;;;2.47;1.90;;;14.50;99.90;;;;;;5099430;28;20209;-72
2023/07/07 02:54:34;;;;;;;2.40;1.50;;;14.40;99.90;;;;;;5081046;28;20579;-71
2023/07/07 02:57:01;;;;;;;2.90;2.20;;;14.40;99.90;;;;;;5081293;28;20421;-73
2023/07/07 02:59:27;;;;;;;2.30;2.00;;;14.40;99.90;;;;;;5096735;28;20531;-71
2023/07/07 03:01:52;;;;;;;4.13;2.60;;;14.40;99.90;;;;;;5041073;28;20444;-71
2023/07/07 03:04:18;;;;;;;3.43;2.23;;;14.40;99.90;;;;;;5073884;28;20243;-71
2023/07/07 03:06:43;;;;;;;3.67;2.83;;;14.30;99.90;;;;;;5078915;28;20179;-73
2023/07/07 03:09:09;;;;;;;4.93;2.30;;;14.40;99.90;;;;;;5078373;28;20277;-71
2023/07/07 03:11:38;;;;;;;2.57;2.10;;;14.30;99.90;;;;;;5070109;28;20207;-71
2023/07/07 03:14:05;;;;;;;2.90;2.20;;;14.30;99.90;;;;;;5077720;28;20442;-71
2023/07/07 03:16:32;;;;;;;3.53;2.50;;;14.30;99.90;;;;;;5043822;28;20188;-72
2023/07/07 03:19:08;;;;;;;2.07;1.87;;;14.20;99.90;;;;;;5077385;28;20438;-72
2023/07/07 03:21:39;;;;;;;3.00;1.87;;;14.20;99.90;;;;;;5077619;28;20818;-72
2023/07/07 03:24:18;;;;;;;3.80;1.90;;;14.20;99.90;;;;;;5077179;28;20449;-72
2023/07/07 03:26:44;;;;;;;3.10;2.33;;;14.20;99.90;;;;;;5077120;28;20422;-72
2023/07/07 03:29:12;;;;;;;3.30;2.17;;;14.10;99.90;;;;;;5076377;28;20503;-71
2023/07/07 03:31:38;;;;;;;4.13;2.40;;;14.10;99.90;;;;;;5043776;28;20417;-72
2023/07/07 03:34:05;;;;;;;3.30;2.20;;;14.10;99.90;;;;;;5068575;28;20206;-72
2023/07/07 03:36:36;;;;;;;3.10;1.70;;;14.10;99.90;;;;;;5077115;28;20485;-72
2023/07/07 03:39:04;;;;;;;2.10;1.90;;;14.10;99.90;;;;;;5076305;28;20482;-72
2023/07/07 03:41:30;;;;;;;5.67;3.00;;;14.10;99.90;;;;;;5077668;28;20419;-72
2023/07/07 03:43:58;;;;;;;2.90;2.43;;;14.10;99.90;;;;;;5076823;28;20461;-72
2023/07/07 03:46:27;;;;;;;5.07;3.13;;;14.10;99.90;;;;;;5062327;28;20418;-73
2023/07/07 03:48:53;;;;;;;2.80;2.50;;;14.10;99.90;;;;;;5077290;28;20439;-72
2023/07/07 03:51:23;;;;;;;2.40;2.03;;;14.10;99.90;;;;;;5075994;28;20443;-72
2023/07/07 03:53:50;;;;;;;2.60;2.23;;;14.10;99.90;;;;;;5078805;28;20690;-71
2023/07/07 03:56:19;;;;;;;2.87;2.40;;;14.20;99.90;;;;;;5078929;28;20402;-71
2023/07/07 03:58:46;;;;;;;3.40;2.40;;;14.20;99.90;;;;;;5079057;28;20837;-71
2023/07/07 04:01:13;;;;;;;3.60;2.77;;;14.20;99.90;;;;;;5053451;28;20580;-71
2023/07/07 04:03:39;;;;;;;4.50;2.70;;;14.30;99.90;;;;;;5076548;28;20436;-73
2023/07/07 04:06:05;;;;;;;4.30;2.40;;;14.30;99.90;;;;;;5077408;28;20448;-71
2023/07/07 04:08:33;;;;;;;3.10;2.10;;;14.30;99.90;;;;;;5077494;28;20433;-71
2023/07/07 04:11:05;;;;;;;3.30;1.90;;;14.40;99.90;;;;;;5073292;28;20207;-72
2023/07/07 04:13:34;;;;;;;4.07;2.67;;;14.40;99.90;;;;;;5077457;28;20424;-71
2023/07/07 04:16:01;;;;;;;3.40;2.50;;;14.40;99.90;;;;;;5051424;28;20690;-71
2023/07/07 04:18:27;;;;;;;3.17;2.23;;;14.40;99.90;;;;;;5064890;28;20473;-71
2023/07/07 04:20:52;;;;;;;3.60;2.53;;;14.40;99.90;;;;;;5075861;28;20481;-72
2023/07/07 04:23:18;;;;;;;3.43;1.93;;;14.40;99.90;;;;;;5077580;28;20187;-73
2023/07/07 04:25:45;;;;;;;3.97;2.33;;;14.50;99.90;;;;;;5077641;28;20223;-73
2023/07/07 04:28:11;;;;;;;4.57;3.07;;;14.60;99.90;;;;;;5078287;28;20255;-71
2023/07/07 04:30:37;;;;;;;7.60;3.07;;;14.70;99.90;;;;;;5057416;28;21061;-72
2023/07/07 04:33:03;;;;;;;3.33;2.50;;;14.70;99.90;;;;;;5072480;28;20189;-72
2023/07/07 04:35:28;;;;;;;4.83;2.33;;;14.70;99.90;;;;;;5077391;28;20188;-72
2023/07/07 04:37:54;;;;;;;2.30;1.80;;;14.70;99.90;;;;;;5076821;28;20189;-73
2023/07/07 04:40:20;;;;;;;2.50;1.93;;;14.70;99.90;;;;;;5076977;28;20220;-72
2023/07/07 04:42:45;;;;;;;5.27;2.70;;;14.80;99.90;;;;;;5077169;28;20515;-72
2023/07/07 04:45:11;;;;;;;2.77;2.07;;;14.80;99.90;;;;;;5070898;28;20220;-71
2023/07/07 04:47:36;;;;;;;3.37;1.97;;;14.80;99.90;;;;;;5076674;28;20181;-72
2023/07/07 04:50:02;;;;;;;2.60;1.77;;;14.90;99.90;;;;;;5076124;28;20212;-71
2023/07/07 04:52:27;;;;;;;4.73;2.73;;;15.10;99.90;;;;;;5076343;28;20200;-73
2023/07/07 04:54:53;;;;;;;2.47;2.17;;;15.70;99.90;;;;;;5076097;28;20184;-72
2023/07/07 04:57:18;;;;;;;3.20;2.23;;;16.40;95.70;;;;;;5075779;28;20188;-73
2023/07/07 04:59:44;;;;;;;3.00;2.17;;;17.10;90.70;;;;;;5070276;28;20218;-71
2023/07/07 05:02:10;;;;;;;2.50;2.00;;;17.80;83.30;;;;;;5061366;28;20238;-72
2023/07/07 05:04:35;;;;;;;3.40;2.40;;;18.30;74.10;;;;;;5093781;28;20365;-74
2023/07/07 05:07:01;;;;;;;4.57;2.20;;;18.80;70.80;;;;;;5083242;28;20193;-73
2023/07/07 05:09:26;;;;;;;2.87;1.97;;;19.30;66.60;;;;;;5101171;28;20421;-72
2023/07/07 05:11:52;;;;;;;2.37;1.80;;;19.80;64.30;;;;;;5101993;28;20449;-73
2023/07/07 05:14:18;;;;;;;2.90;2.40;;;20.30;60.70;;;;;;5100397;28;20171;-73
2023/07/07 05:16:43;;;;;;;2.60;2.00;;;20.60;58.90;;;;;;5076902;28;20200;-72
2023/07/07 05:19:09;;;;;;;2.27;1.70;;;20.90;57.70;;;;;;5061937;28;20596;-72
2023/07/07 05:21:34;;;;;;;5.60;2.20;;;21.20;56.50;;;;;;5096429;28;20215;-73
2023/07/07 05:24:01;;;;;;;3.27;1.40;;;21.50;55.40;;;;;;5101669;28;20199;-76
2023/07/07 05:26:27;;;;;;;2.43;1.67;;;21.80;54.70;;;;;;5087267;28;20189;-72
2023/07/07 05:28:54;;;;;;;2.77;2.33;;;22.10;53.70;;;;;;5082769;28;20406;-73
2023/07/07 05:31:20;;;;;;;3.30;2.07;;;22.40;52.90;;;;;;5074457;28;20832;-72
2023/07/07 05:33:46;;;;;;;2.60;1.97;;;22.40;51.40;;;;;;5074831;28;20739;-73
2023/07/07 05:36:12;;;;;;;2.03;1.67;;;22.60;51.50;;;;;;5102028;28;20426;-76
2023/07/07 05:38:40;;;;;;;4.30;2.30;;;22.90;51.00;;;;;;5068423;28;20199;-72
2023/07/07 05:41:05;;;;;;;4.50;2.43;;;23.00;50.20;;;;;;5102782;28;20503;-73
2023/07/07 05:43:31;;;;;;;2.53;1.87;;;23.20;49.70;;;;;;5084623;28;20482;-76
2023/07/07 05:46:00;;;;;;;3.13;2.20;;;23.40;49.10;;;;;;5100493;28;20200;-72
2023/07/07 05:48:27;;;;;;;6.17;2.17;;;23.60;48.60;;;;;;5067958;28;20203;-74
2023/07/07 05:50:55;;;;;;;3.10;2.10;;;23.70;48.00;;;;;;5082319;28;20434;-73
2023/07/07 05:53:21;;;;;;;4.47;2.73;;;23.90;47.60;;;;;;5101053;28;20406;-77
2023/07/07 05:55:46;;;;;;;2.70;1.90;;;24.10;47.00;;;;;;5100613;28;20930;-74
2023/07/07 05:58:14;;;;;;;6.00;2.53;;;24.20;46.70;;;;;;5101333;28;20181;-72
2023/07/07 06:00:40;;;;;;;3.60;2.27;;;24.30;45.60;;;;;;5080486;28;20209;-73
2023/07/07 06:03:05;;;;;;;5.13;2.10;;;24.00;45.80;;;;;;5101296;28;20419;-73
2023/07/07 06:05:31;;;;;;;3.37;2.10;;;24.10;45.90;;;;;;5104269;28;20208;-75
2023/07/07 06:07:57;;;;;;;3.67;1.90;;;24.30;45.70;;;;;;5086946;28;20571;-73
2023/07/07 06:10:24;;;;;;;3.87;2.17;;;24.30;44.90;;;;;;5084099;28;20617;-73
2023/07/07 06:12:50;;;;;;;3.60;2.07;;;24.50;44.60;;;;;;5101307;28;20418;-73
2023/07/07 06:15:16;;;;;;;3.87;2.13;;;24.50;43.90;;;;;;5091026;28;20397;-74
2023/07/07 06:17:44;;;;;;;3.90;2.30;;;24.60;43.70;;;;;;5083516;28;20399;-73
2023/07/07 06:20:11;;;;;;;2.27;1.43;;;24.40;43.10;;;;;;5099478;28;20915;-73
2023/07/07 06:22:37;;;;;;;3.03;1.80;;;24.30;43.50;;;;;;5107510;28;20797;-75
2023/07/07 06:25:03;;;;;;;3.80;2.10;;;24.30;43.60;;;;;;5104764;28;20469;-74
2023/07/07 06:27:29;;;;;;;3.77;2.03;;;24.30;43.60;;;;;;5105345;28;20191;-75
2023/07/07 06:29:54;;;;;;;1.63;1.43;;;24.50;43.70;;;;;;5086876;28;20445;-74
2023/07/07 06:32:20;;;;;;;2.27;1.70;;;24.70;43.40;;;;;;5085838;28;20205;-75
2023/07/07 06:34:46;;;;;;;2.10;1.57;;;24.90;43.10;;;;;;5086389;28;20491;-74
2023/07/07 06:37:11;;;;;;;2.37;1.83;;;25.00;42.60;;;;;;5106091;28;20207;-74
2023/07/07 06:39:37;;;;;;;2.10;1.70;;;25.10;42.50;;;;;;5107219;28;20207;-75
2023/07/07 06:42:03;;;;;;;3.30;1.60;;;25.20;42.40;;;;;;5089339;28;20188;-75
2023/07/07 06:44:37;;;;;;;2.27;1.60;;;25.30;42.30;;;;;;5068842;28;20197;-73
2023/07/07 06:47:05;;;;;;;3.27;2.87;;;25.40;42.20;;;;;;5067134;28;20497;-78
2023/07/07 06:49:31;;;;;;;2.27;1.90;;;25.20;42.10;;;;;;5061629;28;20434;-74
2023/07/07 06:51:56;;;;;;;2.77;2.00;;;25.40;42.40;;;;;;5106544;28;20434;-75
2023/07/07 06:54:22;;;;;;;2.70;1.93;;;25.40;42.20;;;;;;5088941;28;20175;-76
2023/07/07 06:56:48;;;;;;;2.23;1.47;;;25.30;42.00;;;;;;5106505;28;20602;-73
2023/07/07 06:59:13;;;;;;;1.90;1.50;;;25.20;42.20;;;;;;5106821;28;20228;-74
2023/07/07 07:01:39;;;;;;;2.83;1.90;;;25.20;42.50;;;;;;5093575;28;20495;-75
2023/07/07 07:04:05;;;;;;;3.77;1.70;;;25.20;42.20;;;;;;5107101;28;20255;-74
2023/07/07 07:06:31;;;;;;;2.93;1.63;;;25.10;42.30;;;;;;5089542;28;20406;-77
2023/07/07 07:08:57;;;;;;;2.50;1.77;;;24.90;42.80;;;;;;5107255;28;20470;-75
2023/07/07 07:11:22;;;;;;;3.70;2.10;;;24.90;43.00;;;;;;5101082;28;20602;-73
2023/07/07 07:13:48;;;;;;;3.07;1.57;;;24.90;42.80;;;;;;5051184;28;20478;-76
2023/07/07 07:16:14;;;;;;;4.63;2.37;;;24.80;42.60;;;;;;5073710;28;20411;-73
2023/07/07 07:18:41;;;;;;;2.13;1.60;;;24.80;42.60;;;;;;5082690;28;20169;-77
2023/07/07 07:21:06;;;;;;;5.17;2.10;;;24.60;42.80;;;;;;5055700;28;20190;-74
2023/07/07 07:23:32;;;;;;;2.73;1.77;;;24.50;42.60;;;;;;5073289;28;20416;-75
2023/07/07 07:25:58;;;;;;;3.37;2.00;;;24.40;42.50;;;;;;5071228;28;20253;-77
2023/07/07 07:28:23;;;;;;;2.73;1.60;;;24.30;42.40;;;;;;5053495;28;20163;-75
2023/07/07 07:30:49;;;;;;;3.10;1.97;;;24.20;42.70;;;;;;5067312;28;20220;-74
2023/07/07 07:33:20;;;;;;;2.13;1.70;;;24.10;43.10;;;;;;5070000;28;20204;-76
2023/07/07 07:35:49;;;;;;;2.60;1.93;;;23.90;43.00;;;;;;5089336;28;20551;-74
2023/07/07 07:38:17;;;;;;;3.00;1.80;;;23.70;43.50;;;;;;5087353;28;20414;-75
2023/07/07 07:40:43;;;;;;;3.00;1.60;;;23.50;43.80;;;;;;5069353;28;20426;-76
2023/07/07 07:43:08;;;;;;;2.73;2.10;;;23.30;44.20;;;;;;5105679;28;20395;-76
2023/07/07 07:45:35;;;;;;;1.93;1.73;;;23.00;44.30;;;;;;5093563;28;20452;-76
2023/07/07 07:48:00;;;;;;;4.10;1.60;;;22.70;44.80;;;;;;5058840;28;20509;-76
2023/07/07 07:50:28;;;;;;;3.10;2.03;;;22.50;45.50;;;;;;5064234;28;20435;-73
2023/07/07 07:52:54;;;;;;;2.13;1.80;;;22.30;45.70;;;;;;5098522;28;20367;-76
2023/07/07 07:55:20;;;;;;;2.40;1.83;;;22.20;46.30;;;;;;5068485;28;20419;-75
2023/07/07 07:57:46;;;;;;;8.40;2.90;;;22.10;46.80;;;;;;5069243;28;20429;-76
2023/07/07 08:00:13;;;;;;;3.33;2.23;;;22.10;47.10;;;;;;5081697;28;20198;-75
2023/07/07 08:02:39;;;;;;;4.90;1.80;;;22.10;47.20;;;;;;5064791;28;20173;-74
2023/07/07 08:05:05;;;;;;;2.73;1.53;;;22.10;47.30;;;;;;5082814;28;20493;-75
2023/07/07 08:07:32;;;;;;;4.50;2.20;;;22.10;47.40;;;;;;5076326;28;20410;-73
2023/07/07 08:09:58;;;;;;;4.07;2.47;;;22.10;47.10;;;;;;5069653;28;20434;-74
2023/07/07 08:12:24;;;;;;;3.30;2.00;;;22.10;47.30;;;;;;5089109;28;20430;-75
2023/07/07 08:14:50;;;;;;;3.50;2.40;;;22.10;47.30;;;;;;5099177;28;20839;-75
2023/07/07 08:17:16;;;;;;;2.57;1.40;;;22.20;47.10;;;;;;5088031;28;20214;-74
2023/07/07 08:19:44;;;;;;;2.50;1.53;;;22.20;46.60;;;;;;5106181;28;20642;-75
2023/07/07 08:22:16;;;;;;;2.40;2.00;;;22.30;46.70;;;;;;5086661;28;20501;-75
2023/07/07 08:24:48;;;;;;;2.27;2.03;;;22.50;46.80;;;;;;5104487;28;20713;-73
2023/07/07 08:27:15;;;;;;;5.40;2.93;;;22.60;46.40;;;;;;5085700;28;20418;-76
2023/07/07 08:29:42;;;;;;;2.10;1.90;;;22.80;46.20;;;;;;5086510;28;20881;-75
2023/07/07 08:32:10;;;;;;;6.53;2.37;;;22.90;45.80;;;;;;5067612;28;20428;-78
2023/07/07 08:34:36;;;;;;;2.70;2.10;;;22.90;45.30;;;;;;5068995;28;20435;-75
2023/07/07 08:37:02;;;;;;;3.30;1.90;;;23.10;45.50;;;;;;5051067;28;20438;-75
2023/07/07 08:39:29;;;;;;;3.13;1.73;;;23.10;45.20;;;;;;5095659;28;20453;-74
2023/07/07 08:42:21;;;;;;;5.80;3.80;;;23.30;45.30;;;;;;5107877;28;20185;-77
2023/07/07 08:44:47;;;;;;;3.43;2.43;;;23.40;44.30;;;;;;5089019;28;20603;-77
2023/07/07 08:47:25;;;;;;;3.07;2.40;;;23.50;44.60;;;;;;5072434;28;20411;-75
2023/07/07 08:50:17;;;;;;;2.20;1.73;;;23.50;44.20;;;;;;5105759;28;20471;-77
2023/07/07 08:53:04;;;;;;;3.60;1.80;;;23.60;44.20;;;;;;5088045;28;20407;-76
2023/07/07 08:55:49;;;;;;;2.87;1.97;;;23.70;43.50;;;;;;5106986;28;20429;-77
2023/07/07 08:58:19;;;;;;;3.00;1.80;;;23.70;43.80;;;;;;5098059;28;20467;-77
2023/07/07 09:00:49;;;;;;;2.50;2.30;;;23.80;43.40;;;;;;5051563;28;20425;-76
2023/07/07 09:03:20;;;;;;;4.33;2.53;;;23.80;43.60;;;;;;5080408;28;20773;-75
2023/07/07 09:06:16;;;;;;;4.37;2.53;;;23.80;43.50;;;;;;5088071;28;20461;-74
2023/07/07 09:08:52;;;;;;;3.20;2.27;;;24.00;43.40;;;;;;5106552;28;20407;-77
2023/07/07 09:11:30;;;;;;;3.00;2.00;;;24.00;43.30;;;;;;5088326;28;20422;-74
2023/07/07 09:13:58;;;;;;;3.07;1.83;;;24.10;43.10;;;;;;5089243;28;20411;-76
2023/07/07 09:16:29;;;;;;;4.00;2.63;;;24.20;43.20;;;;;;5064948;28;20385;-77
2023/07/07 09:19:22;;;;;;;3.97;2.00;;;24.30;43.10;;;;;;5047709;28;20686;-74
2023/07/07 09:21:50;;;;;;;4.13;2.93;;;24.40;42.50;;;;;;5076187;28;20488;-75
2023/07/07 09:24:45;;;;;;;3.07;2.50;;;24.50;42.10;;;;;;5105726;28;20470;-76
2023/07/07 09:27:23;;;;;;;2.50;2.00;;;24.70;42.10;;;;;;5104387;28;20414;-78
2023/07/07 09:29:53;;;;;;;2.53;1.93;;;24.70;41.70;;;;;;5087704;28;20443;-78
2023/07/07 09:32:22;;;;;;;2.60;2.10;;;24.70;41.70;;;;;;5049885;28;20769;-75
2023/07/07 09:34:48;;;;;;;2.57;2.10;;;24.80;41.70;;;;;;5083356;28;20491;-74
2023/07/07 09:37:42;;;;;;;3.40;2.30;;;24.80;41.50;;;;;;5102079;28;20423;-76
2023/07/07 09:40:25;;;;;;;3.80;2.40;;;24.90;41.70;;;;;;5069464;28;20435;-76
2023/07/07 09:43:00;;;;;;;5.23;2.60;;;25.00;40.90;;;;;;5104278;28;20411;-76
2023/07/07 09:45:41;;;;;;;3.97;2.20;;;25.10;40.30;;;;;;5073151;28;20423;-77
2023/07/07 09:48:35;;;;;;;2.67;2.20;;;25.20;39.60;;;;;;5057133;28;20417;-75
2023/07/07 09:51:17;;;;;;;2.50;1.77;;;25.20;39.40;;;;;;5087959;28;20481;-75
2023/07/07 09:53:46;;;;;;;2.60;2.10;;;25.20;38.40;;;;;;5080035;28;20422;-79
2023/07/07 09:56:20;;;;;;;3.20;2.40;;;25.30;38.90;;;;;;5071338;28;20517;-74
2023/07/07 09:58:53;;;;;;;2.77;2.00;;;25.40;38.60;;;;;;5087208;28;20518;-75
2023/07/07 10:01:21;;;;;;;3.73;2.43;;;25.40;38.20;;;;;;5057396;28;20434;-76
2023/07/07 10:03:48;;;;;;;4.73;2.60;;;25.50;36.90;;;;;;5047832;28;20533;-75
2023/07/07 10:06:24;;;;;;;3.30;2.40;;;25.60;36.30;;;;;;5048974;28;20456;-75
2023/07/07 10:08:49;;;;;;;3.00;2.23;;;25.60;35.70;;;;;;5082974;28;20471;-75
2023/07/07 10:11:29;;;;;;;5.93;2.23;;;25.60;35.60;;;;;;5073574;28;20369;-77
2023/07/07 10:13:56;;;;;;;3.80;2.47;;;25.70;35.60;;;;;;5066939;28;20186;-75
2023/07/07 10:16:32;;;;;;;9.43;3.10;;;25.70;35.90;;;;;;5034317;28;20424;-78
2023/07/07 10:19:09;;;;;;;3.93;3.00;;;25.80;36.60;;;;;;5081586;28;20422;-75
2023/07/07 10:21:35;;;;;;;3.40;2.30;;;25.90;35.90;;;;;;5098351;28;20412;-76
2023/07/07 10:24:01;;;;;;;5.07;3.20;;;26.00;34.80;;;;;;5087281;28;20416;-76
2023/07/07 10:26:27;;;;;;;3.47;2.33;;;26.10;34.20;;;;;;5079165;28;20480;-77
2023/07/07 10:28:57;;;;;;;5.20;2.53;;;26.00;34.00;;;;;;5067207;28;20407;-75
2023/07/07 10:31:24;;;;;;;3.93;2.60;;;26.00;34.20;;;;;;5075897;28;20201;-73
2023/07/07 10:33:55;;;;;;;3.20;2.57;;;26.10;34.20;;;;;;5066678;28;20802;-75
2023/07/07 10:36:30;;;;;;;5.07;2.60;;;26.10;34.40;;;;;;5044150;28;20418;-75
2023/07/07 10:38:57;;;;;;;3.40;2.40;;;26.10;34.40;;;;;;5068948;28;20422;-77
2023/07/07 10:41:23;;;;;;;6.30;2.47;;;26.20;34.70;;;;;;5110066;28;20411;-79
2023/07/07 10:43:49;;;;;;;2.97;2.20;;;26.20;35.00;;;;;;5091169;28;20421;-77
2023/07/07 10:46:14;;;;;;;3.33;2.40;;;26.30;34.90;;;;;;5108215;28;20446;-77
2023/07/07 10:48:43;;;;;;;3.50;2.37;;;26.40;34.40;;;;;;5091189;28;20149;-77
2023/07/07 10:51:24;;;;;;;3.93;2.53;;;26.50;34.40;;;;;;5041732;28;20209;-74
2023/07/07 10:54:29;;;;;;;3.10;2.57;;;26.50;34.80;;;;;;5108238;28;20733;-76
2023/07/07 10:57:26;;;;;;;2.60;1.80;;;26.50;35.00;;;;;;5109116;28;20398;-78
2023/07/07 11:00:22;;;;;;;3.80;3.10;;;26.60;35.00;;;;;;5087972;28;20522;-76
2023/07/07 11:03:05;;;;;;;3.87;2.80;;;26.70;34.00;;;;;;5073451;28;20431;-76
2023/07/07 11:05:43;;;;;;;2.93;2.20;;;26.80;34.30;;;;;;5074779;28;20464;-77
2023/07/07 11:08:34;;;;;;;3.07;2.30;;;26.90;34.10;;;;;;5111959;28;20489;-76
2023/07/07 11:11:14;;;;;;;3.63;2.60;;;26.90;34.40;;;;;;5038296;28;20763;-78
2023/07/07 11:14:13;;;;;;;3.00;2.17;;;27.00;34.60;;;;;;5071974;28;20409;-78
2023/07/07 11:17:10;;;;;;;4.03;2.80;;;27.00;34.30;;;;;;5056687;28;20419;-76
2023/07/07 11:20:04;;;;;;;4.07;3.07;;;27.00;33.90;;;;;;5074532;28;20517;-77
2023/07/07 11:22:46;;;;;;;4.97;2.90;;;26.90;33.80;;;;;;5095522;28;20467;-78
2023/07/07 11:25:25;;;;;;;4.73;2.20;;;26.90;33.70;;;;;;5096169;28;20450;-77
2023/07/07 11:28:12;;;;;;;3.00;2.70;;;27.00;33.70;;;;;;5098231;28;20391;-78
2023/07/07 11:30:59;;;;;;;3.57;2.60;;;27.00;32.90;;;;;;5096448;28;20443;-77
2023/07/07 11:33:31;;;;;;;5.53;2.97;;;27.00;33.40;;;;;;5094119;28;20450;-76
2023/07/07 11:36:29;;;;;;;4.47;2.47;;;27.00;33.40;;;;;;5094631;28;20736;-77
2023/07/07 11:39:19;;;;;;;3.37;2.07;;;27.10;32.30;;;;;;5062569;28;20400;-77
2023/07/07 11:42:28;;;;;;;3.30;2.23;;;27.00;32.40;;;;;;5111809;28;20418;-77
2023/07/07 11:45:25;;;;;;;3.73;2.60;;;27.00;32.80;;;;;;5090179;28;20489;-77
2023/07/07 11:48:13;;;;;;;3.07;2.40;;;27.10;32.10;;;;;;5075444;28;20503;-77
2023/07/07 11:51:22;;;;;;;3.93;2.57;;;27.10;31.80;;;;;;5073281;28;20438;-76
2023/07/07 11:54:00;;;;;;;3.13;2.83;;;27.20;31.50;;;;;;5076930;28;20389;-78
2023/07/07 11:56:37;;;;;;;4.57;3.20;;;27.20;31.00;;;;;;5095355;28;20417;-76
2023/07/07 11:59:28;;;;;;;3.00;2.37;;;27.30;30.50;;;;;;5074099;28;20409;-77
2023/07/07 12:01:56;;;;;;;2.80;2.40;;;27.30;31.00;;;;;;5059257;28;20392;-76
2023/07/07 12:04:27;;;;;;;3.80;2.57;;;27.20;31.10;;;;;;5111434;28;20538;-75
2023/07/07 12:07:24;;;;;;;5.20;2.33;;;27.30;31.10;;;;;;5089673;28;20815;-78
2023/07/07 12:10:05;;;;;;;3.50;2.80;;;27.30;31.00;;;;;;5090525;28;20466;-76
2023/07/07 12:12:41;;;;;;;5.03;2.40;;;27.30;31.00;;;;;;5090362;28;20448;-75
2023/07/07 12:15:17;;;;;;;2.70;2.10;;;27.30;31.10;;;;;;5088100;28;20427;-78
2023/07/07 12:17:54;;;;;;;11.00;5.57;;;27.30;31.20;;;;;;5105495;28;20410;-78
2023/07/07 12:20:31;;;;;;;3.83;2.93;;;27.40;31.40;;;;;;5106119;28;20458;-75
2023/07/07 12:23:00;;;;;;;3.93;2.70;;;27.50;31.30;;;;;;5073618;28;20486;-76
2023/07/07 12:25:29;;;;;;;2.53;2.33;;;27.60;30.40;;;;;;5068493;28;20455;-78
2023/07/07 12:27:57;;;;;;;2.27;2.00;;;27.60;29.80;;;;;;5112252;28;20475;-77
2023/07/07 12:30:32;;;;;;;2.60;2.13;;;27.70;29.80;;;;;;5083119;28;20445;-77
2023/07/07 12:32:58;;;;;;;3.73;2.40;;;27.70;29.50;;;;;;5110720;28;20821;-75
2023/07/07 12:35:31;;;;;;;5.40;2.80;;;27.70;29.60;;;;;;5097679;28;20379;-77
2023/07/07 12:38:13;;;;;;;3.00;2.20;;;27.70;29.50;;;;;;5074715;28;20407;-78
2023/07/07 12:40:45;;;;;;;2.53;2.13;;;27.70;29.90;;;;;;5056188;28;20915;-79
2023/07/07 12:43:58;;;;;;;3.03;2.40;;;27.70;30.20;;;;;;5060057;28;20463;-77
2023/07/07 12:46:28;;;;;;;4.20;2.20;;;27.70;30.30;;;;;;4980387;28;20499;-77
2023/07/07 12:49:00;;;;;;;3.30;3.00;;;27.80;30.80;;;;;;4972644;28;20416;-78
2023/07/07 12:51:30;;;;;;;6.27;3.00;;;28.00;31.10;;;;;;4977392;28;20416;-78
2023/07/07 12:53:57;;;;;;;2.27;2.00;;;28.10;30.80;;;;;;5002219;28;20435;-77
2023/07/07 12:56:28;;;;;;;2.93;2.70;;;28.10;30.60;;;;;;4972467;28;20419;-75
2023/07/07 12:58:55;;;;;;;3.90;2.97;;;28.00;30.70;;;;;;4970288;28;20434;-76
2023/07/07 13:01:35;;;;;;;4.03;2.50;;;28.00;30.60;;;;;;4963161;28;20744;-77
2023/07/07 13:04:07;;;;;;;3.03;2.60;;;28.00;30.00;;;;;;4991637;28;20553;-79
2023/07/07 13:06:41;;;;;;;3.70;2.87;;;28.10;30.00;;;;;;4991398;28;20893;-76
2023/07/07 13:09:12;;;;;;;3.93;3.10;;;28.20;29.80;;;;;;4974837;28;20492;-77